CheckWX is a tool to help pilots better visualize weather data.  It is not intended as a substitute for an official pre-flight weather briefing.

22:43:21 UTC

KSNA METAR
John Wayne-Orange County Airport
Santa Ana, California, USA
Current

50 mins ago

KSNA 152153Z 21009KT 10SM CLR 25/16 A2988 RMK AO2 SLP115 T02500161
Observed
Jul-15 @ 21:53 UTC
Wind
  • 210° at 9 KTS
Visibility
10 SM
Flight Rules
VFR
Cloud Levels
  • Clear skies
Temperature
25°C / 77°F
Dewpoint
16°C / 61°F
Humidity
57%
Altimeter
29.88" Hg
Pressure
1011.82 hPa
Previous

2 hours ago

KSNA 152053Z 22009KT 10SM CLR 25/17 A2990 RMK AO2 SLP123 T02500167 58008
Observed
Jul-15 @ 20:53 UTC
Wind
  • 220° at 9 KTS
Visibility
10 SM
Flight Rules
VFR
Cloud Levels
  • Clear skies
Temperature
25°C / 77°F
Dewpoint
17°C / 63°F
Humidity
61%
Altimeter
29.9" Hg
Pressure
1012.52 hPa
Previous

3 hours ago

KSNA 151953Z 24007KT 9SM FEW010 24/17 A2991 RMK AO2 SLP126 T02440167
Observed
Jul-15 @ 19:53 UTC
Wind
  • 240° at 7 KTS
Visibility
9 SM
Flight Rules
VFR
Cloud Levels
  • Few at 1,000' AGL
Temperature
24°C / 75°F
Dewpoint
17°C / 63°F
Humidity
65%
Altimeter
29.91" Hg
Pressure
1012.92 hPa